createdAt,value
2023-04-11T00:00:37.057Z,6.82
2023-04-11T00:03:07.170Z,6.73
2023-04-11T00:05:35.140Z,6.95
2023-04-11T00:08:02.954Z,6.99
2023-04-11T00:10:30.691Z,6.98
2023-04-11T00:12:58.343Z,6.95
2023-04-11T00:15:26.871Z,6.73
2023-04-11T00:17:55.025Z,6.42
2023-04-11T00:20:22.855Z,6.33
2023-04-11T00:22:53.919Z,6.56
2023-04-11T00:25:21.722Z,6.70
2023-04-11T00:27:49.415Z,6.74
2023-04-11T00:30:17.212Z,6.97
2023-04-11T00:32:46.655Z,6.95
2023-04-11T00:35:14.532Z,7.03
2023-04-11T00:37:44.459Z,7.04
2023-04-11T00:40:14.122Z,7.00
2023-04-11T00:42:41.905Z,7.23
2023-04-11T00:45:10.022Z,7.23
2023-04-11T00:47:37.747Z,6.84
2023-04-11T00:50:06.030Z,7.05
2023-04-11T00:52:35.047Z,7.04
2023-04-11T00:55:03.474Z,7.07
2023-04-11T00:57:32.282Z,7.03
2023-04-11T01:00:00.025Z,7.26
2023-04-11T01:02:27.997Z,7.34
2023-04-11T01:04:56.263Z,7.38
2023-04-11T01:07:24.027Z,7.31
2023-04-11T01:09:51.858Z,7.20
2023-04-11T01:12:21.473Z,7.11
2023-04-11T01:14:49.344Z,6.95
2023-04-11T01:17:17.267Z,7.06
2023-04-11T01:19:44.953Z,6.96
2023-04-11T01:22:14.794Z,7.23
2023-04-11T01:24:42.480Z,7.26
2023-04-11T01:27:10.544Z,7.17
2023-04-11T01:29:38.688Z,7.18
2023-04-11T01:32:06.529Z,7.18
2023-04-11T01:34:34.426Z,7.08
2023-04-11T01:37:02.436Z,7.18
2023-04-11T01:39:30.259Z,7.18
2023-04-11T01:41:58.566Z,7.31
2023-04-11T01:44:26.243Z,7.09
2023-04-11T01:46:54.022Z,7.01
2023-04-11T01:49:24.219Z,7.14
2023-04-11T01:51:52.074Z,7.13
2023-04-11T01:54:21.336Z,7.28
2023-04-11T01:56:49.143Z,7.24
2023-04-11T01:59:16.895Z,7.16
2023-04-11T02:01:45.992Z,7.20
2023-04-11T02:04:13.883Z,7.23
2023-04-11T02:06:42.513Z,7.08
2023-04-11T02:09:10.261Z,7.24
2023-04-11T02:11:37.998Z,6.98
2023-04-11T02:14:06.409Z,7.15
2023-04-11T02:16:34.194Z,7.15
2023-04-11T02:19:03.619Z,7.04
2023-04-11T02:21:31.717Z,7.08
2023-04-11T02:24:00.715Z,7.13
2023-04-11T02:26:28.711Z,6.84
2023-04-11T02:28:57.017Z,7.02
2023-04-11T02:31:24.914Z,6.87
2023-04-11T02:33:52.839Z,7.04
2023-04-11T02:36:20.961Z,6.94
2023-04-11T02:38:48.655Z,7.09
2023-04-11T02:41:16.405Z,7.11
2023-04-11T02:43:44.077Z,7.07
2023-04-11T02:46:13.033Z,6.97
2023-04-11T02:48:43.706Z,7.09
2023-04-11T02:51:13.098Z,7.01
2023-04-11T02:53:41.196Z,7.18
2023-04-11T02:56:13.206Z,7.03
2023-04-11T02:58:42.079Z,7.13
2023-04-11T03:01:14.841Z,7.19
2023-04-11T03:03:43.016Z,6.65
2023-04-11T03:06:12.441Z,6.69
2023-04-11T03:08:42.065Z,6.04
2023-04-11T03:11:09.786Z,6.00
2023-04-11T03:13:39.367Z,5.99
2023-04-11T03:16:08.100Z,6.35
2023-04-11T03:18:36.098Z,6.27
2023-04-11T03:21:11.519Z,6.10
2023-04-11T03:23:44.117Z,5.85
2023-04-11T03:26:14.394Z,5.73
2023-04-11T03:28:43.839Z,5.79
2023-04-11T03:31:13.292Z,6.36
2023-04-11T03:33:41.334Z,6.67
2023-04-11T03:36:09.309Z,6.72
2023-04-11T03:38:37.127Z,6.90
2023-04-11T03:41:05.198Z,6.93
2023-04-11T03:43:33.501Z,6.97
2023-04-11T03:46:02.290Z,6.90
2023-04-11T03:48:38.036Z,6.87
2023-04-11T03:51:09.218Z,6.85
2023-04-11T03:53:43.580Z,6.98
2023-04-11T03:56:24.223Z,6.95
2023-04-11T03:58:53.066Z,7.05
2023-04-11T04:01:24.249Z,7.03
2023-04-11T04:03:55.017Z,6.93
2023-04-11T04:06:23.088Z,6.95
2023-04-11T04:08:51.635Z,7.17
2023-04-11T04:11:21.434Z,7.14
2023-04-11T04:13:49.654Z,6.95
2023-04-11T04:16:21.147Z,6.89
2023-04-11T04:18:54.139Z,7.07
2023-04-11T04:21:26.877Z,7.12
2023-04-11T04:24:03.444Z,7.14
2023-04-11T04:26:41.945Z,7.06
2023-04-11T04:29:21.504Z,6.96
2023-04-11T04:31:56.944Z,6.92
2023-04-11T04:34:35.434Z,7.02
2023-04-11T04:37:03.237Z,7.03
2023-04-11T04:39:42.060Z,6.95
2023-04-11T04:42:12.839Z,7.13
2023-04-11T04:44:41.495Z,6.94
2023-04-11T04:47:17.688Z,6.77
2023-04-11T04:49:45.792Z,6.81
2023-04-11T04:52:16.293Z,6.68
2023-04-11T04:54:44.128Z,6.71
2023-04-11T04:57:11.839Z,6.90
2023-04-11T04:59:40.386Z,6.83
2023-04-11T05:02:12.321Z,7.02
2023-04-11T05:04:42.175Z,7.26
2023-04-11T05:07:13.907Z,7.28
2023-04-11T05:09:42.050Z,7.17
2023-04-11T05:12:16.111Z,7.20
2023-04-11T05:14:44.288Z,7.28
2023-04-11T05:17:12.015Z,7.43
2023-04-11T05:19:40.167Z,6.61
2023-04-11T05:22:08.179Z,7.00
2023-04-11T05:24:40.390Z,7.27
2023-04-11T05:27:11.795Z,7.29
2023-04-11T05:29:39.982Z,7.13
2023-04-11T05:32:07.737Z,7.42
2023-04-11T05:34:41.847Z,6.68
2023-04-11T05:37:09.634Z,6.73
2023-04-11T05:39:37.343Z,7.18
2023-04-11T05:42:07.888Z,6.99
2023-04-11T05:44:36.015Z,7.37
2023-04-11T05:47:03.695Z,7.40
2023-04-11T05:49:31.459Z,7.08
2023-04-11T05:52:00.352Z,7.08
2023-04-11T05:54:35.362Z,7.07
2023-04-11T05:57:03.347Z,7.24
2023-04-11T05:59:31.884Z,7.23
2023-04-11T06:01:59.681Z,7.19
2023-04-11T06:04:27.648Z,7.18
2023-04-11T06:06:55.606Z,7.19
2023-04-11T06:09:23.379Z,7.39
2023-04-11T06:11:51.244Z,7.59
2023-04-11T06:14:19.017Z,7.63
2023-04-11T06:16:46.750Z,7.84
2023-04-11T06:19:14.488Z,7.52
2023-04-11T06:21:42.204Z,7.78
2023-04-11T06:24:10.677Z,7.79
2023-04-11T06:26:38.419Z,7.79
2023-04-11T06:29:06.349Z,7.98
2023-04-11T06:31:34.620Z,7.20
2023-04-11T06:34:02.556Z,7.69
2023-04-11T06:36:30.258Z,8.10
2023-04-11T06:38:58.046Z,7.72
2023-04-11T06:41:25.831Z,8.11
2023-04-11T06:43:53.628Z,7.90
2023-04-11T06:46:21.318Z,8.23
2023-04-11T06:48:49.149Z,8.03
2023-04-11T06:51:16.797Z,8.25
2023-04-11T06:53:44.891Z,8.07
2023-04-11T06:56:12.544Z,7.76
2023-04-11T06:58:40.854Z,8.13
2023-04-11T07:01:08.513Z,8.40
2023-04-11T07:03:37.024Z,8.14
2023-04-11T07:06:04.891Z,8.80
2023-04-11T07:08:33.098Z,9.03
2023-04-11T07:11:01.956Z,8.13
2023-04-11T07:13:29.709Z,8.69
2023-04-11T07:15:57.469Z,8.81
2023-04-11T07:18:27.335Z,8.95
2023-04-11T07:20:55.529Z,9.07
2023-04-11T07:23:23.800Z,8.95
2023-04-11T07:25:51.632Z,8.95
2023-04-11T07:28:19.397Z,9.23
2023-04-11T07:30:47.400Z,9.14
2023-04-11T07:33:15.353Z,9.12
2023-04-11T07:35:43.052Z,9.17
2023-04-11T07:38:10.817Z,9.31
2023-04-11T07:40:38.502Z,9.76
2023-04-11T07:43:06.260Z,10.06
2023-04-11T07:45:34.310Z,9.85
2023-04-11T07:48:02.136Z,9.78
2023-04-11T07:50:29.943Z,9.84
2023-04-11T07:52:57.631Z,9.53
2023-04-11T07:55:25.509Z,9.74
2023-04-11T07:57:53.206Z,10.16
2023-04-11T08:00:22.306Z,10.04
2023-04-11T08:02:51.089Z,8.95
2023-04-11T08:05:19.358Z,9.23
2023-04-11T08:07:47.133Z,10.10
2023-04-11T08:10:14.969Z,10.03
2023-04-11T08:12:42.667Z,10.36
2023-04-11T08:15:10.691Z,10.65
2023-04-11T08:17:38.903Z,10.64
2023-04-11T08:20:12.011Z,10.15
2023-04-11T08:22:40.390Z,10.63
2023-04-11T08:25:08.947Z,11.03
2023-04-11T08:27:36.861Z,10.00
2023-04-11T08:30:06.156Z,10.41
2023-04-11T08:32:34.697Z,10.59
2023-04-11T08:35:02.493Z,10.86
2023-04-11T08:37:30.399Z,11.18
2023-04-11T08:39:58.158Z,11.67
2023-04-11T08:42:26.432Z,11.12
2023-04-11T08:44:58.509Z,11.22
2023-04-11T08:47:26.346Z,11.59
2023-04-11T08:49:54.173Z,11.06
2023-04-11T08:52:21.854Z,10.73
2023-04-11T08:54:51.751Z,12.09
2023-04-11T08:57:27.770Z,11.47
2023-04-11T08:59:56.367Z,10.92
2023-04-11T09:02:24.229Z,10.86
2023-04-11T09:04:52.054Z,11.43
2023-04-11T09:07:19.781Z,11.08
2023-04-11T09:09:47.602Z,10.76
2023-04-11T09:12:15.857Z,10.77
2023-04-11T09:14:43.665Z,11.20
2023-04-11T09:17:16.967Z,11.24
2023-04-11T09:19:48.939Z,11.66
2023-04-11T09:22:17.658Z,10.94
2023-04-11T09:24:46.799Z,11.57
2023-04-11T09:27:19.675Z,12.13
2023-04-11T09:29:48.252Z,11.55
2023-04-11T09:32:35.108Z,11.84
2023-04-11T09:35:12.151Z,11.41
2023-04-11T09:37:45.052Z,11.34
2023-04-11T09:40:14.696Z,11.65
2023-04-11T09:42:42.968Z,11.66
2023-04-11T09:45:21.236Z,12.80
2023-04-11T09:47:49.862Z,12.31
2023-04-11T09:50:17.695Z,12.79
2023-04-11T09:52:46.040Z,13.35
2023-04-11T09:55:16.327Z,13.19
2023-04-11T09:57:48.812Z,13.32
2023-04-11T10:00:19.793Z,12.31
2023-04-11T10:02:50.064Z,12.31
2023-04-11T10:05:18.224Z,12.91
2023-04-11T10:08:06.390Z,13.02
2023-04-11T10:10:34.162Z,13.56
2023-04-11T10:13:01.847Z,13.73
2023-04-11T10:15:30.146Z,13.52
2023-04-11T10:18:11.138Z,13.05
2023-04-11T10:20:49.822Z,13.04
2023-04-11T10:23:17.570Z,13.33
2023-04-11T10:25:55.765Z,12.94
2023-04-11T10:28:31.019Z,11.83
2023-04-11T10:30:59.297Z,12.37
2023-04-11T10:33:27.701Z,11.82
2023-04-11T10:36:11.187Z,11.73
2023-04-11T10:38:43.328Z,12.48
2023-04-11T10:41:18.217Z,12.50
2023-04-11T10:43:46.296Z,11.40
2023-04-11T10:46:23.925Z,11.71
2023-04-11T10:49:00.801Z,10.91
2023-04-11T10:51:32.172Z,11.43
2023-04-11T10:54:00.537Z,11.51
2023-04-11T10:56:46.745Z,11.20
2023-04-11T10:59:32.586Z,10.95
2023-04-11T11:02:01.592Z,11.20
2023-04-11T11:04:33.015Z,11.06
2023-04-11T11:07:07.577Z,11.31
2023-04-11T11:09:35.458Z,11.21
2023-04-11T11:12:12.552Z,11.46
2023-04-11T11:14:44.275Z,11.43
2023-04-11T11:17:47.837Z,11.77
2023-04-11T11:20:16.638Z,11.72
2023-04-11T11:22:44.347Z,11.47
2023-04-11T11:25:12.380Z,11.89
2023-04-11T11:27:40.065Z,12.09
2023-04-11T11:30:11.444Z,11.75
2023-04-11T11:32:39.201Z,11.53
2023-04-11T11:35:13.425Z,11.79
2023-04-11T11:37:41.895Z,11.19
2023-04-11T11:40:13.114Z,11.33
2023-04-11T11:42:41.237Z,11.75
2023-04-11T11:45:16.137Z,11.79
2023-04-11T11:47:47.856Z,11.79
2023-04-11T11:50:29.257Z,11.74
2023-04-11T11:53:13.495Z,11.96
2023-04-11T11:55:43.177Z,12.26
2023-04-11T11:58:11.121Z,12.34
2023-04-11T12:00:39.828Z,12.05
2023-04-11T12:03:10.932Z,12.23
2023-04-11T12:05:39.109Z,12.66
2023-04-11T12:08:07.422Z,12.12
2023-04-11T12:10:39.276Z,11.85
2023-04-11T12:13:13.200Z,11.81
2023-04-11T12:15:42.041Z,12.02
2023-04-11T12:18:09.907Z,12.24
2023-04-11T12:20:37.696Z,12.11
2023-04-11T12:23:05.532Z,12.09
2023-04-11T12:25:33.223Z,12.28
2023-04-11T12:28:01.109Z,12.46
2023-04-11T12:30:30.086Z,12.38
2023-04-11T12:32:58.173Z,12.23
2023-04-11T12:35:25.969Z,11.89
2023-04-11T12:37:53.683Z,12.31
2023-04-11T12:40:21.635Z,11.91
2023-04-11T12:44:22.954Z,11.90
2023-04-11T12:45:37.673Z,12.00
2023-04-11T12:48:06.275Z,12.06
2023-04-11T12:50:34.004Z,12.03
2023-04-11T12:53:01.791Z,11.70
2023-04-11T12:55:30.040Z,12.22
2023-04-11T12:57:57.813Z,11.89
2023-04-11T13:00:25.919Z,12.10
2023-04-11T13:02:54.490Z,12.12
2023-04-11T13:05:22.595Z,12.30
2023-04-11T13:07:50.380Z,12.13
2023-04-11T13:10:18.139Z,12.03
2023-04-11T13:12:46.468Z,12.14
2023-04-11T13:15:15.572Z,12.03
2023-04-11T13:17:43.440Z,12.25
2023-04-11T13:20:12.856Z,12.68
2023-04-11T13:22:41.435Z,12.84
2023-04-11T13:25:09.798Z,12.66
2023-04-11T13:27:39.356Z,12.62
2023-04-11T13:30:08.446Z,12.36
2023-04-11T13:32:36.615Z,12.79
2023-04-11T13:35:05.859Z,12.63
2023-04-11T13:37:33.559Z,12.63
2023-04-11T13:40:01.465Z,12.70
2023-04-11T13:42:29.149Z,12.32
2023-04-11T13:44:56.893Z,12.91
2023-04-11T13:47:24.616Z,12.64
2023-04-11T13:49:52.498Z,12.38
2023-04-11T13:52:22.132Z,12.69
2023-04-11T13:54:50.142Z,12.55
2023-04-11T13:57:17.818Z,12.25
2023-04-11T13:59:45.661Z,12.70
2023-04-11T14:02:13.364Z,12.51
2023-04-11T14:04:41.979Z,12.56
2023-04-11T14:07:09.765Z,12.82
2023-04-11T14:09:37.516Z,12.85
2023-04-11T14:12:05.524Z,12.53
2023-04-11T14:14:33.281Z,12.37
2023-04-11T14:17:01.049Z,12.63
2023-04-11T14:19:29.140Z,12.79
2023-04-11T14:21:57.904Z,13.09
2023-04-11T14:24:26.261Z,13.48
2023-04-11T14:26:53.956Z,12.99
2023-04-11T14:29:22.918Z,12.71
2023-04-11T14:31:51.301Z,12.66
2023-04-11T14:34:19.154Z,12.52
2023-04-11T14:37:06.574Z,12.46
2023-04-11T14:39:34.446Z,12.62
2023-04-11T14:42:02.150Z,12.77
2023-04-11T14:44:30.030Z,12.64
2023-04-11T14:46:57.740Z,12.40
2023-04-11T14:49:25.593Z,12.20
2023-04-11T14:51:53.361Z,12.66
2023-04-11T14:54:22.809Z,12.89
2023-04-11T14:56:50.602Z,12.91
2023-04-11T14:59:18.514Z,12.25
2023-04-11T15:01:46.605Z,12.32
2023-04-11T15:04:14.694Z,12.25
2023-04-11T15:06:42.440Z,12.45
2023-04-11T15:09:10.332Z,12.83
2023-04-11T15:11:38.029Z,12.68
2023-04-11T15:14:05.791Z,12.19
2023-04-11T15:16:33.492Z,12.36
2023-04-11T15:19:01.295Z,12.10
2023-04-11T15:21:29.024Z,11.88
2023-04-11T15:23:57.467Z,11.75
2023-04-11T15:26:25.738Z,11.61
2023-04-11T15:28:53.490Z,11.79
2023-04-11T15:31:27.301Z,11.56
2023-04-11T15:33:57.154Z,12.00
2023-04-11T15:36:25.089Z,12.07
2023-04-11T15:38:52.918Z,11.85
2023-04-11T15:41:20.918Z,12.05
2023-04-11T15:43:48.668Z,12.24
2023-04-11T15:46:17.034Z,12.39
2023-04-11T15:48:44.818Z,12.22
2023-04-11T15:51:14.182Z,11.66
2023-04-11T15:53:42.022Z,11.24
2023-04-11T15:56:09.845Z,11.86
2023-04-11T15:58:37.636Z,11.49
2023-04-11T16:01:05.514Z,12.06
2023-04-11T16:03:33.477Z,11.67
2023-04-11T16:06:01.871Z,11.83
2023-04-11T16:08:29.654Z,11.70
2023-04-11T16:10:57.446Z,10.87
2023-04-11T16:13:25.345Z,11.17
2023-04-11T16:15:53.242Z,11.58
2023-04-11T16:18:21.014Z,11.38
2023-04-11T16:20:48.784Z,10.81
2023-04-11T16:23:16.442Z,10.80
2023-04-11T16:25:44.968Z,11.54
2023-04-11T16:28:14.237Z,11.79
2023-04-11T16:30:42.033Z,12.08
2023-04-11T16:33:09.746Z,11.54
2023-04-11T16:35:37.552Z,11.38
2023-04-11T16:38:05.537Z,11.51
2023-04-11T16:40:33.576Z,12.07
2023-04-11T16:43:01.500Z,12.34
2023-04-11T16:45:29.331Z,12.62
2023-04-11T16:47:57.142Z,12.69
2023-04-11T16:50:26.083Z,12.55
2023-04-11T16:52:54.811Z,12.66
2023-04-11T16:55:22.567Z,12.77
2023-04-11T16:57:50.468Z,12.70
2023-04-11T17:00:20.392Z,12.77
2023-04-11T17:02:48.206Z,12.68
2023-04-11T17:05:18.883Z,12.59
2023-04-11T17:07:46.992Z,12.74
2023-04-11T17:10:14.776Z,12.73
2023-04-11T17:12:42.433Z,12.15
2023-04-11T17:15:11.182Z,12.39
2023-04-11T17:17:38.899Z,12.37
2023-04-11T17:20:09.694Z,12.19
2023-04-11T17:22:41.289Z,12.41
2023-04-11T17:25:10.118Z,12.23
2023-04-11T17:27:37.942Z,12.45
2023-04-11T17:30:06.971Z,12.47
2023-04-11T17:32:36.026Z,12.56
2023-04-11T17:35:06.762Z,12.52
2023-04-11T17:37:36.031Z,12.46
2023-04-11T17:40:10.630Z,12.56
2023-04-11T17:42:38.369Z,12.23
2023-04-11T17:45:17.234Z,12.51
2023-04-11T17:47:49.433Z,12.44
2023-04-11T17:50:17.460Z,11.77
2023-04-11T17:52:46.206Z,12.14
2023-04-11T17:55:15.612Z,11.93
2023-04-11T17:57:44.113Z,11.81
2023-04-11T18:00:17.932Z,10.95
2023-04-11T18:02:48.117Z,10.98
2023-04-11T18:05:23.806Z,10.79
2023-04-11T18:07:54.282Z,10.50
2023-04-11T18:10:23.021Z,10.68
2023-04-11T18:12:51.885Z,10.58
2023-04-11T18:15:21.068Z,10.67
2023-04-11T18:17:48.925Z,10.24
2023-04-11T18:20:16.847Z,10.27
2023-04-11T18:22:57.579Z,10.51
2023-04-11T18:25:25.582Z,10.50
2023-04-11T18:27:53.378Z,11.07
2023-04-11T18:30:21.183Z,10.73
2023-04-11T18:32:50.942Z,9.85
2023-04-11T18:35:18.912Z,10.29
2023-04-11T18:37:46.670Z,10.35
2023-04-11T18:40:15.395Z,11.11
2023-04-11T18:42:45.529Z,11.20
2023-04-11T18:45:14.880Z,11.32
2023-04-11T18:47:44.221Z,11.59
2023-04-11T18:50:12.630Z,11.02
2023-04-11T18:52:40.336Z,11.05
2023-04-11T18:55:10.022Z,11.26
2023-04-11T18:57:38.577Z,10.83
2023-04-11T19:00:25.151Z,10.71
2023-04-11T19:02:53.227Z,10.62
2023-04-11T19:05:21.352Z,10.24
2023-04-11T19:07:49.215Z,9.99
2023-04-11T19:10:17.018Z,9.79
2023-04-11T19:12:44.825Z,10.23
2023-04-11T19:15:12.758Z,10.71
2023-04-11T19:17:40.577Z,10.34
2023-04-11T19:20:13.150Z,10.09
2023-04-11T19:22:41.467Z,10.52
2023-04-11T19:25:10.785Z,10.80
2023-04-11T19:27:41.271Z,10.97
2023-04-11T19:30:10.454Z,11.04
2023-04-11T19:32:40.774Z,10.55
2023-04-11T19:35:12.103Z,10.56
2023-04-11T19:37:40.014Z,10.64
2023-04-11T19:40:08.143Z,10.24
2023-04-11T19:42:39.932Z,10.10
2023-04-11T19:45:09.668Z,9.88
2023-04-11T19:47:39.145Z,10.16
2023-04-11T19:50:13.037Z,9.78
2023-04-11T19:52:41.798Z,9.88
2023-04-11T19:55:10.600Z,9.97
2023-04-11T19:57:39.002Z,10.23
2023-04-11T20:00:11.917Z,10.13
2023-04-11T20:02:48.227Z,9.50
2023-04-11T20:05:18.073Z,9.63
2023-04-11T20:07:46.439Z,10.11
2023-04-11T20:10:14.641Z,10.21
2023-04-11T20:12:42.371Z,10.28
2023-04-11T20:15:10.657Z,9.54
2023-04-11T20:17:38.484Z,10.01
2023-04-11T20:20:08.583Z,10.01
2023-04-11T20:22:38.293Z,9.74
2023-04-11T20:25:07.414Z,9.55
2023-04-11T20:27:35.114Z,9.56
2023-04-11T20:30:06.931Z,9.48
2023-04-11T20:32:34.778Z,10.35
2023-04-11T20:35:02.595Z,10.43
2023-04-11T20:37:30.973Z,10.51
2023-04-11T20:39:58.817Z,10.07
2023-04-11T20:42:27.887Z,9.65
2023-04-11T20:45:11.924Z,9.82
2023-04-11T20:47:40.304Z,10.25
2023-04-11T20:50:10.356Z,10.60
2023-04-11T20:52:38.217Z,10.06
2023-04-11T20:55:06.327Z,10.47
2023-04-11T20:57:34.001Z,10.56
2023-04-11T21:00:02.378Z,10.07
2023-04-11T21:02:30.197Z,10.06
2023-04-11T21:04:58.020Z,9.21
2023-04-11T21:07:25.767Z,9.96
2023-04-11T21:09:55.790Z,9.78
2023-04-11T21:12:23.444Z,9.72
2023-04-11T21:14:51.157Z,10.27
2023-04-11T21:17:19.239Z,9.79
2023-04-11T21:19:46.981Z,9.85
2023-04-11T21:22:14.731Z,10.26
2023-04-11T21:24:42.490Z,10.10
2023-04-11T21:27:10.165Z,9.90
2023-04-11T21:29:37.924Z,10.22
2023-04-11T21:32:05.863Z,9.34
2023-04-11T21:34:33.629Z,9.79
2023-04-11T21:37:01.504Z,9.22
2023-04-11T21:39:29.188Z,8.07
2023-04-11T21:41:56.944Z,8.21
2023-04-11T21:44:24.667Z,9.40
2023-04-11T21:46:52.442Z,9.38
2023-04-11T21:49:20.113Z,9.74
2023-04-11T21:51:47.867Z,10.15
2023-04-11T21:54:16.073Z,9.61
2023-04-11T21:56:44.890Z,9.22
2023-04-11T21:59:12.603Z,9.35
2023-04-11T22:01:41.616Z,9.59
2023-04-11T22:04:10.620Z,9.65
2023-04-11T22:06:38.914Z,9.94
2023-04-11T22:09:06.608Z,10.19
2023-04-11T22:11:34.390Z,10.17
2023-04-11T22:14:02.233Z,10.26
2023-04-11T22:16:31.457Z,10.41
2023-04-11T22:19:00.503Z,10.36
2023-04-11T22:21:28.511Z,10.13
2023-04-11T22:23:57.147Z,10.30
2023-04-11T22:26:34.565Z,10.45
2023-04-11T22:29:05.354Z,10.14
2023-04-11T22:31:38.656Z,10.15
2023-04-11T22:34:09.383Z,10.42
2023-04-11T22:36:37.239Z,10.33
2023-04-11T22:39:05.804Z,10.46
2023-04-11T22:41:34.195Z,10.52
2023-04-11T22:44:02.351Z,9.68
2023-04-11T22:46:30.944Z,10.08
2023-04-11T22:48:58.642Z,9.99
2023-04-11T22:51:29.994Z,9.82
2023-04-11T22:53:58.059Z,9.90
2023-04-11T22:56:26.056Z,9.86
2023-04-11T22:58:59.065Z,10.08
2023-04-11T23:01:28.238Z,10.04
2023-04-11T23:03:56.186Z,9.79
2023-04-11T23:06:24.235Z,9.64
2023-04-11T23:08:53.999Z,9.89
2023-04-11T23:11:21.753Z,9.88
2023-04-11T23:13:49.403Z,9.39
2023-04-11T23:16:17.296Z,9.87
2023-04-11T23:18:44.999Z,9.99
2023-04-11T23:21:15.587Z,10.07
2023-04-11T23:23:43.282Z,9.98
2023-04-11T23:26:18.343Z,10.03
2023-04-11T23:28:46.749Z,10.05
2023-04-11T23:31:15.550Z,9.84
2023-04-11T23:33:43.862Z,10.07
2023-04-11T23:36:12.096Z,10.11
2023-04-11T23:38:39.761Z,10.00
2023-04-11T23:41:07.679Z,9.70
2023-04-11T23:43:35.387Z,9.67
2023-04-11T23:46:03.278Z,9.53
2023-04-11T23:48:31.186Z,9.44
2023-04-11T23:50:58.884Z,9.97
2023-04-11T23:53:26.573Z,9.59
2023-04-11T23:55:54.319Z,9.51
2023-04-11T23:58:21.993Z,9.70
